createdAt,value
2019-01-06T00:00:28.742Z,7.77
2019-01-06T00:03:01.680Z,7.00
2019-01-06T00:05:34.686Z,6.50
2019-01-06T00:08:07.465Z,6.93
2019-01-06T00:10:40.527Z,7.67
2019-01-06T00:13:19.567Z,7.10
2019-01-06T00:15:58.412Z,6.60
2019-01-06T00:18:37.079Z,7.27
2019-01-06T00:21:22.015Z,7.27
2019-01-06T00:23:52.075Z,7.17
2019-01-06T00:26:37.063Z,7.00
2019-01-06T00:29:10.052Z,7.60
2019-01-06T00:31:54.991Z,7.57
2019-01-06T00:34:27.952Z,7.60
2019-01-06T00:37:13.966Z,6.87
2019-01-06T00:39:52.747Z,7.40
2019-01-06T00:42:31.799Z,7.87
2019-01-06T00:45:01.871Z,7.33
2019-01-06T00:47:40.766Z,7.33
2019-01-06T00:50:19.880Z,8.07
2019-01-06T00:53:07.545Z,8.00
2019-01-06T00:55:40.179Z,8.23
2019-01-06T00:58:10.267Z,7.73
2019-01-06T01:00:58.248Z,9.53
2019-01-06T01:03:46.018Z,9.20
2019-01-06T01:06:16.081Z,9.97
2019-01-06T01:08:54.751Z,8.50
2019-01-06T01:11:24.828Z,8.70
2019-01-06T01:14:10.818Z,9.47
2019-01-06T01:16:49.667Z,8.43
2019-01-06T01:19:19.764Z,9.97
2019-01-06T01:22:07.580Z,10.20
2019-01-06T01:24:43.600Z,9.07
2019-01-06T01:27:19.399Z,8.77
2019-01-06T01:29:55.017Z,11.33
2019-01-06T01:32:37.164Z,10.57
2019-01-06T01:35:07.276Z,10.37
2019-01-06T01:37:37.351Z,7.93
2019-01-06T01:40:25.721Z,8.47
2019-01-06T01:43:13.671Z,8.83
2019-01-06T01:45:58.645Z,9.70
2019-01-06T01:48:40.655Z,9.23
2019-01-06T01:51:10.740Z,11.13
2019-01-06T01:53:46.284Z,11.10
2019-01-06T01:56:19.041Z,10.80
2019-01-06T01:58:49.124Z,11.57
2019-01-06T02:01:24.934Z,10.67
2019-01-06T02:04:03.783Z,11.57
2019-01-06T02:06:33.864Z,10.23
2019-01-06T02:09:12.674Z,11.53
2019-01-06T02:11:54.544Z,12.03
2019-01-06T02:14:24.618Z,9.77
2019-01-06T02:17:00.684Z,10.27
2019-01-06T02:19:33.275Z,10.60
2019-01-06T02:22:03.403Z,10.07
2019-01-06T02:24:49.784Z,9.00
2019-01-06T02:27:38.071Z,11.03
2019-01-06T02:30:08.582Z,9.40
2019-01-06T02:32:44.587Z,9.80
2019-01-06T02:35:29.808Z,10.57
2019-01-06T02:38:14.880Z,10.47
2019-01-06T02:40:50.596Z,10.30
2019-01-06T02:43:32.586Z,10.30
2019-01-06T02:46:08.423Z,11.37
2019-01-06T02:48:38.520Z,10.80
2019-01-06T02:51:26.844Z,11.73
2019-01-06T02:54:13.262Z,12.23
2019-01-06T02:56:59.711Z,11.50
2019-01-06T02:59:46.191Z,13.37
2019-01-06T03:02:32.523Z,11.90
2019-01-06T03:05:20.724Z,12.67
2019-01-06T03:07:59.811Z,12.63
2019-01-06T03:10:45.891Z,12.13
2019-01-06T03:13:18.755Z,12.93
2019-01-06T03:16:04.551Z,13.13
2019-01-06T03:18:34.653Z,12.50
2019-01-06T03:21:10.309Z,12.13
2019-01-06T03:23:43.399Z,11.33
2019-01-06T03:26:31.508Z,11.70
2019-01-06T03:29:17.587Z,12.77
2019-01-06T03:31:47.718Z,11.37
2019-01-06T03:34:23.771Z,11.70
2019-01-06T03:36:59.299Z,10.83
2019-01-06T03:39:35.107Z,10.73
2019-01-06T03:42:05.261Z,9.53
2019-01-06T03:44:51.152Z,10.60
2019-01-06T03:47:27.280Z,10.33
2019-01-06T03:50:09.292Z,10.33
2019-01-06T03:52:39.383Z,10.00
2019-01-06T03:55:11.932Z,11.57
2019-01-06T03:57:42.118Z,9.70
2019-01-06T04:00:18.420Z,10.10
2019-01-06T04:02:48.559Z,10.13
2019-01-06T04:05:18.655Z,9.40
2019-01-06T04:08:03.970Z,9.63
2019-01-06T04:10:34.116Z,9.37
2019-01-06T04:13:20.783Z,10.27
2019-01-06T04:16:07.034Z,10.17
2019-01-06T04:18:53.072Z,9.70
2019-01-06T04:21:35.339Z,9.33
2019-01-06T04:24:08.067Z,9.90
2019-01-06T04:26:43.577Z,9.23
2019-01-06T04:29:25.350Z,9.07
2019-01-06T04:31:55.521Z,8.87
2019-01-06T04:34:31.375Z,9.17
2019-01-06T04:37:17.576Z,9.07
2019-01-06T04:39:53.601Z,7.70
2019-01-06T04:42:38.464Z,7.77
2019-01-06T04:45:08.602Z,9.33
2019-01-06T04:47:41.227Z,8.13
2019-01-06T04:50:23.084Z,9.40
2019-01-06T04:52:55.735Z,9.23
2019-01-06T04:55:31.815Z,9.40
2019-01-06T04:58:04.597Z,10.10
2019-01-06T05:00:34.694Z,9.53
2019-01-06T05:03:07.530Z,10.17
2019-01-06T05:05:40.017Z,9.10
2019-01-06T05:08:16.179Z,9.37
2019-01-06T05:10:54.994Z,10.17
2019-01-06T05:13:27.537Z,9.43
2019-01-06T05:16:00.382Z,9.87
2019-01-06T05:18:46.573Z,10.80
2019-01-06T05:21:32.909Z,10.27
2019-01-06T05:24:19.019Z,11.40
2019-01-06T05:26:49.179Z,9.87
2019-01-06T05:29:34.009Z,10.73
2019-01-06T05:32:07.189Z,9.50
2019-01-06T05:34:37.333Z,10.20
2019-01-06T05:37:23.402Z,10.67
2019-01-06T05:39:59.509Z,10.53
2019-01-06T05:42:45.791Z,10.03
2019-01-06T05:45:15.884Z,11.17
2019-01-06T05:47:57.992Z,11.17
2019-01-06T05:50:33.820Z,10.57
2019-01-06T05:53:03.945Z,10.97
2019-01-06T05:55:42.822Z,12.20
2019-01-06T05:58:12.944Z,11.70
2019-01-06T06:00:45.928Z,11.00
2019-01-06T06:03:34.247Z,10.80
2019-01-06T06:06:10.092Z,11.43
2019-01-06T06:08:40.260Z,11.87
2019-01-06T06:11:10.326Z,11.87
2019-01-06T06:13:56.451Z,12.57
2019-01-06T06:16:26.549Z,12.97
2019-01-06T06:19:08.609Z,12.90
2019-01-06T06:21:54.401Z,12.33
2019-01-06T06:24:27.502Z,13.70
2019-01-06T06:27:00.035Z,13.73
2019-01-06T06:29:30.235Z,12.90
2019-01-06T06:32:06.101Z,13.77
2019-01-06T06:34:48.220Z,12.67
2019-01-06T06:37:29.848Z,14.10
2019-01-06T06:40:02.875Z,12.67
2019-01-06T06:42:38.641Z,13.57
2019-01-06T06:45:26.856Z,11.27
2019-01-06T06:47:59.390Z,11.43
2019-01-06T06:50:29.483Z,11.27
2019-01-06T06:53:08.631Z,11.87
2019-01-06T06:55:47.600Z,10.10
2019-01-06T06:58:29.484Z,11.33
2019-01-06T07:01:14.083Z,10.83
2019-01-06T07:03:55.585Z,11.50
2019-01-06T07:06:37.510Z,11.63
2019-01-06T07:09:10.724Z,12.30
2019-01-06T07:11:46.835Z,13.20
2019-01-06T07:14:34.911Z,11.23
2019-01-06T07:17:46.730Z,14.27
2019-01-06T07:20:18.805Z,14.03
2019-01-06T07:22:54.964Z,13.03
2019-01-06T07:25:27.767Z,14.40
2019-01-06T07:28:13.184Z,13.43
2019-01-06T07:30:48.926Z,14.37
2019-01-06T07:33:19.146Z,14.53
2019-01-06T07:36:04.005Z,15.30
2019-01-06T07:38:43.179Z,15.70
2019-01-06T07:41:28.426Z,13.50
2019-01-06T07:44:01.480Z,14.93
2019-01-06T07:46:47.331Z,14.90
2019-01-06T07:49:17.423Z,14.17
2019-01-06T07:51:56.548Z,13.67
2019-01-06T07:54:26.651Z,13.60
2019-01-06T07:56:56.717Z,14.57
2019-01-06T07:59:35.907Z,16.33
2019-01-06T08:02:08.980Z,18.87
2019-01-06T08:04:39.072Z,18.23
2019-01-06T08:07:17.649Z,17.07
2019-01-06T08:09:47.796Z,18.40
2019-01-06T08:12:23.959Z,18.13
2019-01-06T08:14:54.104Z,18.40
2019-01-06T08:17:30.268Z,18.40
2019-01-06T08:20:04.677Z,18.37
2019-01-06T08:22:43.580Z,18.43
2019-01-06T08:25:19.824Z,19.73
2019-01-06T08:27:52.699Z,19.57
2019-01-06T08:30:22.794Z,20.23
2019-01-06T08:33:01.629Z,19.13
2019-01-06T08:35:31.766Z,19.50
2019-01-06T08:38:17.872Z,22.27
2019-01-06T08:40:50.667Z,20.33
2019-01-06T08:43:26.440Z,20.40
2019-01-06T08:45:56.504Z,19.57
2019-01-06T08:48:26.614Z,21.93
2019-01-06T08:51:05.763Z,20.53
2019-01-06T08:53:35.844Z,19.43
2019-01-06T08:56:11.622Z,20.20
2019-01-06T08:58:41.719Z,20.07
2019-01-06T09:01:27.899Z,21.03
2019-01-06T09:04:14.057Z,20.83
2019-01-06T09:07:00.125Z,20.83
2019-01-06T09:09:33.331Z,18.77
2019-01-06T09:12:03.388Z,22.27
2019-01-06T09:14:45.554Z,19.97
2019-01-06T09:17:27.782Z,18.97
2019-01-06T09:20:00.619Z,21.63
2019-01-06T09:22:39.579Z,21.53
2019-01-06T09:25:26.086Z,19.93
2019-01-06T09:28:05.340Z,21.53
2019-01-06T09:30:51.891Z,20.27
2019-01-06T09:33:30.739Z,23.60
2019-01-06T09:36:03.373Z,21.83
2019-01-06T09:38:39.171Z,21.70
2019-01-06T09:41:25.175Z,22.50
2019-01-06T09:43:55.270Z,21.77
2019-01-06T09:46:34.179Z,20.33
2019-01-06T09:49:09.863Z,22.57
2019-01-06T09:51:45.704Z,23.47
2019-01-06T09:54:32.032Z,22.87
2019-01-06T09:57:18.370Z,19.83
2019-01-06T10:00:03.666Z,19.73
2019-01-06T10:02:49.856Z,21.33
2019-01-06T10:05:22.607Z,22.10
2019-01-06T10:07:58.403Z,20.00
2019-01-06T10:10:40.492Z,20.60
2019-01-06T10:13:22.419Z,20.53
2019-01-06T10:15:58.071Z,20.80
2019-01-06T10:18:28.220Z,19.13
2019-01-06T10:21:00.813Z,19.20
2019-01-06T10:23:30.887Z,18.80
2019-01-06T10:26:19.081Z,17.80
2019-01-06T10:28:54.869Z,18.07
2019-01-06T10:31:33.708Z,17.17
2019-01-06T10:34:15.468Z,17.30
2019-01-06T10:36:51.092Z,17.93
2019-01-06T10:39:23.981Z,14.83
2019-01-06T10:41:54.115Z,15.03
2019-01-06T10:44:26.976Z,16.57
2019-01-06T10:47:15.300Z,14.60
2019-01-06T10:49:48.142Z,13.17
2019-01-06T10:52:21.203Z,15.70
2019-01-06T10:55:03.420Z,14.10
2019-01-06T10:57:49.883Z,14.87
2019-01-06T11:00:37.720Z,15.13
2019-01-06T11:03:23.844Z,14.90
2019-01-06T11:05:53.983Z,15.20
2019-01-06T11:08:41.971Z,14.40
2019-01-06T11:11:27.987Z,15.67
2019-01-06T11:14:03.966Z,16.83
2019-01-06T11:16:51.938Z,17.67
2019-01-06T11:19:37.704Z,16.70
2019-01-06T11:22:23.916Z,17.93
2019-01-06T11:25:06.095Z,18.17
2019-01-06T11:27:52.477Z,17.50
2019-01-06T11:30:38.562Z,18.37
2019-01-06T11:33:20.712Z,17.97
2019-01-06T11:35:53.685Z,18.37
2019-01-06T11:38:39.738Z,16.40
2019-01-06T11:41:26.085Z,17.80
2019-01-06T11:44:02.044Z,17.80
2019-01-06T11:46:48.459Z,18.23
2019-01-06T11:49:23.175Z,18.10
2019-01-06T11:51:53.457Z,19.07
2019-01-06T11:54:23.541Z,18.37
2019-01-06T11:57:09.599Z,18.13
2019-01-06T11:59:42.632Z,17.90
2019-01-06T12:02:15.207Z,19.80
2019-01-06T12:04:45.285Z,19.97
2019-01-06T12:07:24.237Z,19.13
2019-01-06T12:09:54.330Z,19.80
2019-01-06T12:12:24.459Z,18.80
2019-01-06T12:15:09.392Z,20.10
2019-01-06T12:17:55.326Z,20.33
2019-01-06T12:20:28.420Z,20.67
2019-01-06T12:23:01.290Z,21.00
2019-01-06T12:25:36.787Z,18.83
2019-01-06T12:28:06.908Z,17.97
2019-01-06T12:30:54.790Z,15.63
2019-01-06T12:33:41.018Z,16.17
2019-01-06T12:36:11.110Z,15.60
2019-01-06T12:38:50.248Z,15.97
2019-01-06T12:41:26.020Z,14.77
2019-01-06T12:44:07.944Z,16.17
2019-01-06T12:46:54.100Z,15.50
2019-01-06T12:49:26.943Z,15.73
2019-01-06T12:51:57.023Z,14.57
2019-01-06T12:54:45.016Z,14.40
2019-01-06T12:57:31.013Z,14.17
2019-01-06T13:00:03.886Z,13.97
2019-01-06T13:02:36.725Z,14.00
2019-01-06T13:05:07.207Z,13.90
2019-01-06T13:07:37.285Z,13.53
2019-01-06T13:10:08.634Z,14.73
2019-01-06T13:12:50.845Z,15.40
2019-01-06T13:15:29.551Z,14.03
2019-01-06T13:18:05.583Z,15.93
2019-01-06T13:20:50.550Z,17.13
2019-01-06T13:23:20.638Z,15.73
2019-01-06T13:25:56.483Z,17.53
2019-01-06T13:28:26.564Z,18.87
2019-01-06T13:31:02.507Z,18.83
2019-01-06T13:33:48.696Z,19.60
2019-01-06T13:36:42.243Z,19.90
2019-01-06T13:39:28.211Z,23.43
2019-01-06T13:42:00.983Z,19.53
2019-01-06T13:44:39.923Z,20.00
2019-01-06T13:47:09.996Z,21.70
2019-01-06T13:49:45.661Z,20.07
2019-01-06T13:52:31.679Z,18.70
2019-01-06T13:55:01.744Z,17.57
2019-01-06T13:57:31.831Z,19.93
2019-01-06T14:00:10.543Z,18.70
2019-01-06T14:02:58.765Z,20.97
2019-01-06T14:05:31.662Z,20.60
2019-01-06T14:08:04.236Z,18.73
2019-01-06T14:10:37.320Z,17.90
2019-01-06T14:13:19.727Z,17.73
2019-01-06T14:16:05.804Z,15.13
2019-01-06T14:18:35.896Z,15.00
2019-01-06T14:21:14.943Z,14.33
2019-01-06T14:24:01.147Z,13.63
2019-01-06T14:26:33.847Z,15.70
2019-01-06T14:29:15.972Z,15.50
2019-01-06T14:31:54.812Z,15.03
2019-01-06T14:34:33.399Z,16.20
2019-01-06T14:37:09.252Z,17.23
2019-01-06T14:39:44.883Z,16.50
2019-01-06T14:42:29.819Z,16.57
2019-01-06T14:45:08.929Z,16.47
2019-01-06T14:47:55.054Z,15.60
2019-01-06T14:50:41.141Z,16.70
2019-01-06T14:53:17.019Z,16.33
2019-01-06T14:55:53.178Z,18.40
2019-01-06T14:58:23.285Z,20.07
2019-01-06T15:00:55.953Z,16.90
2019-01-06T15:03:42.075Z,19.30
2019-01-06T15:06:12.200Z,18.60
2019-01-06T15:08:51.017Z,17.97
2019-01-06T15:11:37.092Z,19.70
2019-01-06T15:14:12.936Z,19.40
2019-01-06T15:16:51.939Z,18.63
2019-01-06T15:19:36.829Z,19.03
2019-01-06T15:22:09.958Z,18.70
2019-01-06T15:24:45.776Z,19.43
2019-01-06T15:27:21.646Z,20.83
2019-01-06T15:29:57.154Z,20.47
2019-01-06T15:32:29.984Z,20.40
2019-01-06T15:35:11.887Z,21.10
2019-01-06T15:37:41.975Z,21.37
2019-01-06T15:40:29.664Z,20.43
2019-01-06T15:42:59.758Z,21.13
2019-01-06T15:45:29.832Z,22.53
2019-01-06T15:48:14.743Z,21.33
2019-01-06T15:50:59.467Z,20.13
2019-01-06T15:53:29.580Z,22.00
2019-01-06T15:56:05.510Z,21.17
2019-01-06T15:58:44.708Z,21.27
2019-01-06T16:01:23.512Z,22.60
2019-01-06T16:03:53.696Z,22.33
2019-01-06T16:06:29.580Z,22.03
2019-01-06T16:08:59.761Z,20.87
2019-01-06T16:11:44.723Z,20.97
2019-01-06T16:14:26.772Z,20.93
2019-01-06T16:17:12.873Z,22.03
2019-01-06T16:19:54.846Z,20.40
2019-01-06T16:22:24.997Z,20.70
2019-01-06T16:25:09.738Z,22.13
2019-01-06T16:27:42.488Z,20.87
2019-01-06T16:30:28.704Z,23.33
2019-01-06T16:33:15.390Z,20.97
2019-01-06T16:35:48.011Z,20.90
2019-01-06T16:38:34.308Z,22.37
2019-01-06T16:41:04.410Z,21.53
2019-01-06T16:43:50.260Z,21.17
2019-01-06T16:46:29.068Z,21.20
2019-01-06T16:48:59.134Z,21.53
2019-01-06T16:51:47.116Z,20.87
2019-01-06T16:54:25.911Z,20.70
2019-01-06T16:57:12.111Z,20.60
2019-01-06T16:59:57.104Z,21.00
2019-01-06T17:02:30.190Z,21.50
2019-01-06T17:05:00.275Z,20.67
2019-01-06T17:07:46.609Z,22.97
2019-01-06T17:10:32.703Z,20.23
2019-01-06T17:13:11.670Z,21.73
2019-01-06T17:15:47.700Z,20.13
2019-01-06T17:18:17.815Z,21.50
2019-01-06T17:21:05.487Z,20.03
2019-01-06T17:23:51.428Z,21.60
2019-01-06T17:26:37.620Z,22.27
2019-01-06T17:29:13.529Z,23.37
2019-01-06T17:31:46.322Z,22.33
2019-01-06T17:34:21.883Z,22.93
2019-01-06T17:36:57.693Z,23.20
2019-01-06T17:39:44.078Z,23.60
2019-01-06T17:42:30.552Z,22.80
2019-01-06T17:45:06.076Z,22.03
2019-01-06T17:47:42.172Z,20.10
2019-01-06T17:50:21.076Z,20.97
2019-01-06T17:52:57.195Z,22.83
2019-01-06T17:55:30.023Z,20.17
2019-01-06T17:58:02.782Z,22.07
2019-01-06T18:00:38.857Z,21.50
2019-01-06T18:03:20.645Z,20.63
2019-01-06T18:06:02.894Z,19.93
2019-01-06T18:08:39.074Z,20.53
2019-01-06T18:11:26.888Z,20.50
2019-01-06T18:13:57.014Z,20.53
2019-01-06T18:16:41.656Z,23.57
2019-01-06T18:19:27.792Z,21.27
2019-01-06T18:22:00.860Z,22.40
2019-01-06T18:24:46.044Z,21.37
2019-01-06T18:27:16.156Z,21.53
2019-01-06T18:29:55.037Z,20.77
2019-01-06T18:32:40.003Z,21.57
2019-01-06T18:35:28.146Z,21.43
2019-01-06T18:37:58.229Z,21.83
2019-01-06T18:40:44.403Z,20.70
2019-01-06T18:43:23.411Z,23.03
2019-01-06T18:46:05.097Z,20.47
2019-01-06T18:48:50.875Z,21.37
2019-01-06T18:51:29.648Z,21.53
2019-01-06T18:54:18.023Z,19.83
2019-01-06T18:56:53.902Z,20.67
2019-01-06T18:59:40.211Z,23.67
2019-01-06T19:02:16.111Z,24.63
2019-01-06T19:04:48.914Z,23.53
2019-01-06T19:07:21.455Z,23.60
2019-01-06T19:10:07.284Z,22.77
2019-01-06T19:12:49.318Z,23.17
2019-01-06T19:15:35.426Z,22.43
2019-01-06T19:18:05.707Z,24.03
2019-01-06T19:20:38.273Z,23.77
2019-01-06T19:23:19.976Z,25.57
2019-01-06T19:26:06.175Z,22.60
2019-01-06T19:28:39.260Z,20.30
2019-01-06T19:31:21.090Z,22.40
2019-01-06T19:34:03.082Z,26.50
2019-01-06T19:36:49.275Z,21.30
2019-01-06T19:39:19.446Z,22.00
2019-01-06T19:42:05.313Z,22.93
2019-01-06T19:44:53.595Z,21.83
2019-01-06T19:47:23.742Z,25.27
2019-01-06T19:50:10.028Z,23.43
2019-01-06T19:52:55.042Z,21.53
2019-01-06T19:55:25.283Z,23.13
2019-01-06T19:58:13.708Z,21.17
2019-01-06T20:00:43.873Z,21.87
2019-01-06T20:03:31.824Z,20.60
2019-01-06T20:06:04.751Z,21.17
2019-01-06T20:08:43.712Z,18.27
2019-01-06T20:11:22.695Z,20.50
2019-01-06T20:13:52.865Z,20.80
2019-01-06T20:16:25.443Z,20.13
2019-01-06T20:19:10.627Z,24.00
2019-01-06T20:21:55.477Z,23.07
2019-01-06T20:24:34.187Z,26.87
2019-01-06T20:27:07.360Z,21.03
2019-01-06T20:29:39.854Z,22.77
2019-01-06T20:32:19.112Z,20.53
2019-01-06T20:34:51.912Z,22.80
2019-01-06T20:37:33.535Z,20.97
2019-01-06T20:40:18.608Z,20.57
2019-01-06T20:43:04.909Z,22.83
2019-01-06T20:45:49.763Z,20.97
2019-01-06T20:48:23.077Z,22.40
2019-01-06T20:50:53.142Z,23.10
2019-01-06T20:53:41.101Z,20.17
2019-01-06T20:56:29.232Z,20.13
2019-01-06T20:59:17.400Z,23.27
2019-01-06T21:01:55.912Z,22.70
2019-01-06T21:04:37.855Z,20.17
2019-01-06T21:07:20.060Z,22.07
2019-01-06T21:09:53.073Z,20.60
2019-01-06T21:12:39.232Z,22.37
2019-01-06T21:15:25.395Z,22.80
2019-01-06T21:17:55.495Z,24.07
2019-01-06T21:20:41.911Z,21.83
2019-01-06T21:23:14.888Z,25.03
2019-01-06T21:25:44.953Z,23.60
2019-01-06T21:28:31.517Z,25.20
2019-01-06T21:31:17.568Z,22.33
2019-01-06T21:33:53.395Z,21.50
2019-01-06T21:36:32.298Z,26.00
2019-01-06T21:39:04.976Z,24.00
2019-01-06T21:41:51.158Z,22.97
2019-01-06T21:44:37.230Z,25.40
2019-01-06T21:47:07.379Z,23.57
2019-01-06T21:49:40.557Z,25.90
2019-01-06T21:52:10.659Z,25.37
2019-01-06T21:54:40.708Z,25.83
2019-01-06T21:57:26.942Z,23.40
2019-01-06T22:00:06.139Z,23.07
2019-01-06T22:02:44.860Z,23.27
2019-01-06T22:05:23.547Z,23.00
2019-01-06T22:07:53.619Z,23.50
2019-01-06T22:10:26.420Z,24.97
2019-01-06T22:12:58.906Z,23.23
2019-01-06T22:15:28.983Z,26.10
2019-01-06T22:18:05.171Z,23.70
2019-01-06T22:20:35.279Z,24.37
2019-01-06T22:23:23.216Z,25.67
2019-01-06T22:25:55.999Z,23.70
2019-01-06T22:28:31.920Z,24.80
2019-01-06T22:31:25.005Z,24.73
2019-01-06T22:33:54.631Z,26.53
2019-01-06T22:36:27.377Z,24.03
2019-01-06T22:39:03.363Z,27.37
2019-01-06T22:41:42.483Z,23.47
2019-01-06T22:44:27.719Z,26.03
2019-01-06T22:47:14.142Z,26.30
2019-01-06T22:49:50.342Z,25.17
2019-01-06T22:52:20.401Z,24.20
2019-01-06T22:54:53.450Z,25.83
2019-01-06T22:57:26.267Z,24.43
2019-01-06T23:00:07.938Z,25.27
2019-01-06T23:02:49.864Z,25.83
2019-01-06T23:05:25.891Z,25.93
2019-01-06T23:08:01.675Z,24.40
2019-01-06T23:10:43.635Z,25.03
2019-01-06T23:13:28.820Z,24.47
2019-01-06T23:15:58.900Z,27.63
2019-01-06T23:18:29.007Z,25.60
2019-01-06T23:21:15.416Z,24.37
2019-01-06T23:24:01.231Z,24.17
2019-01-06T23:26:40.359Z,26.03
2019-01-06T23:29:26.507Z,25.27
2019-01-06T23:31:59.329Z,26.90
2019-01-06T23:34:41.468Z,25.10
2019-01-06T23:37:27.575Z,26.00
2019-01-06T23:40:13.659Z,24.30
2019-01-06T23:42:46.457Z,24.23
2019-01-06T23:45:28.323Z,25.07
2019-01-06T23:48:01.132Z,25.87
2019-01-06T23:50:31.235Z,27.83
2019-01-06T23:53:15.956Z,26.57
2019-01-06T23:56:02.072Z,24.90
2019-01-06T23:58:41.035Z,24.63
